Time;durP1;ratioP1;P1;durP2;ratioP2;P2;SDS_P1;SDS_P2;PMS_P1;PMS_P2;Temp;Humidity;BMP_temperature;BMP_pressure;BME280_temperature;BME280_humidity;BME280_pressure;Samples;Min_cycle;Max_cycle;Signal;HPM_P1;HPM_P2
2022/06/18 00:00:12;;;;;;;4.10;2.70;;;;;;;23.42;64.21;101462.72;5029835;28;20087;-81
2022/06/18 00:02:42;;;;;;;2.70;2.50;;;;;;;23.40;64.43;101461.81;5038634;28;20020;-81
2022/06/18 00:05:09;;;;;;;2.90;2.60;;;;;;;23.41;64.25;101460.97;5049189;28;20064;-81
2022/06/18 00:07:39;;;;;;;3.28;2.90;;;;;;;23.37;64.19;101454.69;5027039;28;20017;-81
2022/06/18 00:10:06;;;;;;;3.10;2.53;;;;;;;23.41;64.29;101457.38;5051445;28;20118;-82
2022/06/18 00:15:23;;;;;;;2.97;2.63;;;;;;;23.38;64.17;101460.91;5004003;28;20032;-82
2022/06/18 00:17:50;;;;;;;2.85;2.60;;;;;;;23.42;64.34;101461.84;5025430;28;20522;-81
2022/06/18 00:20:17;;;;;;;4.15;2.72;;;;;;;23.41;63.89;101460.97;5031846;28;20104;-82
2022/06/18 00:22:45;;;;;;;3.00;2.65;;;;;;;23.40;64.30;101461.81;5020141;28;20107;-81
2022/06/18 00:25:20;;;;;;;5.45;2.63;;;;;;;23.37;64.33;101457.34;5021484;28;20031;-81
2022/06/18 00:27:46;;;;;;;3.88;2.80;;;;;;;23.36;64.61;101457.31;5051073;28;20032;-81
2022/06/18 00:30:14;;;;;;;3.50;3.00;;;;;;;23.36;64.31;101457.31;5031633;28;20021;-81
2022/06/18 00:32:40;;;;;;;3.25;2.60;;;;;;;23.34;63.98;101461.75;5033411;28;20060;-82
2022/06/18 00:35:06;;;;;;;2.72;2.53;;;;;;;23.36;63.94;101462.66;5036756;28;20451;-81
2022/06/18 00:37:32;;;;;;;2.83;2.50;;;;;;;23.38;64.16;101458.25;5031733;28;20072;-81
2022/06/18 00:39:57;;;;;;;5.03;2.97;;;;;;;23.37;64.04;101462.69;5036820;28;20520;-82
2022/06/18 00:42:29;;;;;;;3.25;2.60;;;;;;;23.32;64.10;101467.03;5031501;28;20044;-82
2022/06/18 00:44:58;;;;;;;3.03;2.60;;;;;;;23.35;64.54;101460.88;5045016;28;20112;-81
2022/06/18 00:47:42;;;;;;;3.50;2.58;;;;;;;23.33;64.32;101466.19;5012039;28;20488;-81
2022/06/18 00:50:27;;;;;;;3.00;2.72;;;;;;;23.36;64.37;101460.00;5024550;28;20447;-81
2022/06/18 00:53:02;;;;;;;2.97;2.60;;;;;;;23.37;64.34;101467.13;5013449;28;20029;-81
2022/06/18 00:55:34;;;;;;;3.83;3.05;;;;;;;23.34;64.24;101457.28;5011596;28;20021;-81
2022/06/18 00:58:11;;;;;;;2.70;2.45;;;;;;;23.35;63.98;101450.22;5022239;28;20033;-82
2022/06/18 01:00:40;;;;;;;2.97;2.55;;;;;;;23.33;64.28;101452.84;5014454;28;20025;-81
2022/06/18 01:03:23;;;;;;;4.15;2.80;;;;;;;23.32;64.87;101461.72;5022568;28;20028;-82
2022/06/18 01:05:49;;;;;;;2.92;2.70;;;;;;;23.23;64.59;101448.28;5013445;28;20111;-82
2022/06/18 01:08:17;;;;;;;2.65;2.42;;;;;;;23.33;64.21;101457.31;5013584;28;20493;-82
2022/06/18 01:10:48;;;;;;;2.90;2.33;;;;;;;23.29;64.35;101445.69;5035067;28;20450;-81
2022/06/18 01:13:16;;;;;;;2.95;2.40;;;;;;;23.31;64.26;101451.06;5029155;28;20030;-81
2022/06/18 01:15:43;;;;;;;2.95;2.50;;;;;;;23.29;64.49;101445.69;5013467;28;20021;-81
2022/06/18 01:18:09;;;;;;;3.42;2.50;;;;;;;23.33;64.32;101451.97;5033134;28;20028;-82
2022/06/18 01:21:04;;;;;;;;;;;;;;;23.37;64.05;101445.81;5021873;28;20033;-81
2022/06/18 01:24:02;;;;;;;2.97;2.75;;;;;;;23.32;64.39;101451.06;4970842;28;19910;-82
2022/06/18 01:26:28;;;;;;;2.78;2.50;;;;;;;23.28;64.57;101443.94;4986069;28;20126;-81
2022/06/18 01:28:53;;;;;;;;;;;;;;;23.34;64.23;101453.75;5014002;28;20026;-81
2022/06/18 01:31:19;;;;;;;2.55;2.33;;;;;;;23.20;64.34;101434.00;5037497;28;20395;-80
2022/06/18 01:33:46;;;;;;;3.63;2.42;;;;;;;23.28;64.49;101456.31;5012892;28;20021;-81
2022/06/18 01:36:12;;;;;;;2.70;2.50;;;;;;;23.29;64.29;101450.13;5036685;28;20036;-81
2022/06/18 01:38:41;;;;;;;2.88;2.55;;;;;;;23.27;64.93;101454.56;5005790;28;20108;-80
2022/06/18 01:44:34;;;;;;;2.95;2.53;;;;;;;23.25;64.26;101446.53;5037348;28;20035;-80
2022/06/18 01:47:05;;;;;;;4.05;2.65;;;;;;;23.28;64.49;101446.59;5007214;28;20618;-81
2022/06/18 01:49:35;;;;;;;3.83;2.60;;;;;;;23.27;64.29;101439.44;5016047;28;20025;-80
2022/06/18 01:52:02;;;;;;;2.45;2.25;;;;;;;23.22;64.46;101426.94;5020866;28;20029;-81
2022/06/18 01:54:32;;;;;;;2.92;2.60;;;;;;;23.22;64.90;101434.94;5020801;28;20021;-81
2022/06/18 01:57:05;;;;;;;3.83;2.55;;;;;;;23.23;64.72;101434.97;5018462;28;20021;-81
2022/06/18 01:59:34;;;;;;;3.10;2.60;;;;;;;23.24;64.37;101441.19;5015677;28;20163;-81
2022/06/18 02:01:59;;;;;;;3.63;2.30;;;;;;;23.17;64.46;101425.09;5032586;28;20031;-81
2022/06/18 02:04:26;;;;;;;3.63;2.63;;;;;;;23.22;64.35;101429.59;5016474;28;20026;-81
2022/06/18 02:06:53;;;;;;;2.85;2.65;;;;;;;23.23;64.58;101432.28;5016273;28;20029;-80
2022/06/18 02:09:49;;;;;;;3.05;2.40;;;;;;;23.26;64.61;101443.00;5029835;28;20124;-81
2022/06/18 02:12:18;;;;;;;3.00;2.70;;;;;;;23.25;64.55;101440.31;5053614;28;20043;-81
2022/06/18 02:14:47;;;;;;;2.58;2.38;;;;;;;23.19;64.76;101434.91;5041072;28;20052;-81
2022/06/18 02:17:17;;;;;;;2.50;2.30;;;;;;;23.25;64.48;101442.97;5033826;28;20014;-81
2022/06/18 02:19:46;;;;;;;2.60;2.40;;;;;;;23.24;64.62;101441.19;5032891;28;20052;-81
2022/06/18 02:22:12;;;;;;;2.67;2.33;;;;;;;23.23;64.62;101434.97;5047403;28;20431;-81
2022/06/18 02:24:38;;;;;;;2.70;2.50;;;;;;;23.05;64.47;101400.06;5036680;28;21815;-81
2022/06/18 02:27:03;;;;;;;4.47;2.70;;;;;;;23.23;64.60;101429.63;5032632;28;20033;-80
2022/06/18 02:29:30;;;;;;;3.63;2.60;;;;;;;23.23;64.55;101426.97;5025606;28;20466;-81
2022/06/18 02:31:56;;;;;;;3.05;2.22;;;;;;;23.22;64.90;101429.59;5032581;28;20084;-82
2022/06/18 02:34:27;;;;;;;2.45;2.20;;;;;;;23.22;64.55;101432.25;5030669;28;20018;-82
2022/06/18 02:36:53;;;;;;;2.33;2.20;;;;;;;23.23;64.69;101445.63;5031845;28;20077;-81
2022/06/18 02:39:27;;;;;;;3.00;2.22;;;;;;;23.22;64.38;101448.25;5033543;28;20064;-81
2022/06/18 02:41:58;;;;;;;2.78;2.30;;;;;;;23.18;64.74;101450.00;5036604;28;20026;-81
2022/06/18 02:44:24;;;;;;;3.45;2.70;;;;;;;23.16;65.06;101449.97;5035619;28;20022;-81
2022/06/18 02:46:50;;;;;;;2.60;2.40;;;;;;;23.17;64.84;101456.19;5030132;28;20659;-82
2022/06/18 02:49:15;;;;;;;3.58;2.65;;;;;;;23.15;64.59;101449.94;5032895;28;20044;-81
2022/06/18 02:51:41;;;;;;;;;;;;;;;23.23;64.60;101458.94;5034994;28;20029;-81
2022/06/18 02:54:07;;;;;;;2.47;2.28;;;;;;;23.09;64.68;101444.53;5032789;28;20450;-81
2022/06/18 02:56:32;;;;;;;2.80;2.40;;;;;;;23.16;64.84;101467.75;5031648;28;20021;-81
2022/06/18 02:58:58;;;;;;;;;;;;;;;23.19;64.55;101470.44;5032826;28;20500;-82
2022/06/18 03:01:25;;;;;;;3.08;2.50;;;;;;;23.13;64.50;101471.25;5038911;28;20433;-81
2022/06/18 03:03:57;;;;;;;2.63;2.42;;;;;;;23.13;64.58;101473.91;5038276;28;20112;-81
2022/06/18 03:06:25;;;;;;;3.28;2.35;;;;;;;23.14;64.77;101475.72;5029794;28;20040;-81
2022/06/18 03:08:51;;;;;;;2.50;2.30;;;;;;;23.12;64.71;101469.47;5029826;28;20045;-81
2022/06/18 03:14:04;;;;;;;2.53;2.35;;;;;;;23.09;64.70;101461.44;5032759;28;20098;-81
2022/06/18 03:16:30;;;;;;;2.67;2.47;;;;;;;23.15;64.72;101457.94;5013285;28;20043;-81
2022/06/18 03:18:57;;;;;;;2.70;2.50;;;;;;;23.13;64.47;101459.69;5013231;28;20060;-81
2022/06/18 03:21:46;;;;;;;3.47;2.33;;;;;;;23.11;64.57;101457.03;5014416;28;20041;-81
2022/06/18 03:24:13;;;;;;;2.92;2.60;;;;;;;23.12;64.39;101455.25;5013237;28;20025;-81
2022/06/18 03:26:39;;;;;;;2.40;2.20;;;;;;;23.12;64.52;101460.59;5033386;28;20037;-82
2022/06/18 03:29:06;;;;;;;;;;;;;;;23.13;64.86;101470.34;5014494;28;20025;-82
2022/06/18 03:31:32;;;;;;;2.90;2.10;;;;;;;23.11;64.51;101473.00;5032671;28;19913;-82
2022/06/18 03:33:58;;;;;;;3.30;2.60;;;;;;;23.09;64.64;101476.50;5018083;28;20330;-81
2022/06/18 03:36:24;;;;;;;3.42;2.20;;;;;;;22.97;64.71;101466.56;5013992;28;20060;-81
2022/06/18 03:38:49;;;;;;;;;;;;;;;23.15;64.60;101481.94;5022196;28;20504;-81
2022/06/18 03:41:16;;;;;;;3.60;2.65;;;;;;;23.03;64.44;101464.03;5029638;28;20388;-81
2022/06/18 03:43:42;;;;;;;3.13;2.38;;;;;;;23.03;64.57;101477.34;5031254;28;20466;-81
2022/06/18 03:46:13;;;;;;;2.72;2.10;;;;;;;23.09;64.72;101482.75;5035398;28;20021;-81
2022/06/18 03:48:42;;;;;;;2.40;2.20;;;;;;;23.10;64.49;101491.63;5012461;28;20080;-81
2022/06/18 03:51:08;;;;;;;2.42;2.22;;;;;;;23.09;64.46;101488.09;5031351;28;20041;-81
2022/06/18 03:53:33;;;;;;;3.15;2.22;;;;;;;23.05;64.38;101480.91;5013449;28;20389;-81
2022/06/18 03:55:59;;;;;;;2.40;2.20;;;;;;;23.10;64.85;101489.84;5029681;28;20033;-81
2022/06/18 03:58:27;;;;;;;2.33;2.13;;;;;;;23.08;64.59;101494.28;5028236;28;20186;-81
2022/06/18 04:00:52;;;;;;;3.35;2.20;;;;;;;23.09;64.39;101482.75;5036764;28;20108;-81
2022/06/18 04:03:18;;;;;;;2.53;2.33;;;;;;;23.09;64.21;101480.09;5031278;28;20159;-81
2022/06/18 04:05:44;;;;;;;2.42;2.30;;;;;;;23.05;64.15;101480.91;5025478;28;20492;-81
2022/06/18 04:08:12;;;;;;;;;;;;;;;23.09;64.35;101490.75;5032726;28;20480;-81
2022/06/18 04:10:38;;;;;;;2.90;2.60;;;;;;;23.04;64.50;101481.78;5023990;28;20000;-80
2022/06/18 04:13:03;;;;;;;2.28;2.17;;;;;;;22.92;64.38;101468.25;5036730;28;20048;-78
2022/06/18 04:15:29;;;;;;;;;;;;;;;23.08;64.28;101485.38;5038549;28;20029;-79
2022/06/18 04:17:54;;;;;;;2.53;2.33;;;;;;;23.04;64.51;101483.56;5025557;28;19913;-82
2022/06/18 04:20:23;;;;;;;2.33;2.20;;;;;;;23.05;64.32;101480.00;5048204;28;20029;-81
2022/06/18 04:22:50;;;;;;;2.60;2.40;;;;;;;23.02;64.35;101474.66;5042358;28;20116;-82
2022/06/18 04:25:15;;;;;;;;;;;;;;;23.10;64.20;101476.53;5018438;28;20033;-82
2022/06/18 04:27:41;;;;;;;2.30;2.10;;;;;;;23.00;64.36;101481.69;5031179;28;19917;-81
2022/06/18 04:30:07;;;;;;;3.70;2.25;;;;;;;22.98;64.45;101487.88;5031717;28;20083;-82
2022/06/18 04:32:35;;;;;;;2.60;2.40;;;;;;;23.00;64.27;101485.22;5032827;28;20029;-81
2022/06/18 04:35:02;;;;;;;2.53;2.30;;;;;;;22.93;64.46;101472.72;5025596;28;20026;-81
2022/06/18 04:37:28;;;;;;;4.38;2.40;;;;;;;22.97;64.27;101480.78;5026829;28;20056;-80
2022/06/18 04:39:53;;;;;;;;;;;;;;;23.02;64.45;101485.31;5030476;28;20405;-81
2022/06/18 04:42:19;;;;;;;2.67;2.47;;;;;;;22.92;64.83;101484.22;5034287;28;19919;-80
2022/06/18 04:44:45;;;;;;;;;;;;;;;22.94;64.67;101485.13;5032036;28;20095;-80
2022/06/18 04:47:10;;;;;;;2.20;2.10;;;;;;;22.90;64.49;101481.56;5027744;28;20374;-80
2022/06/18 04:49:36;;;;;;;;;;;;;;;22.99;64.45;101486.13;5030395;28;20032;-80
2022/06/18 04:52:01;;;;;;;2.80;2.35;;;;;;;22.92;64.35;101482.47;5033371;28;19909;-79
2022/06/18 04:54:27;;;;;;;2.85;2.60;;;;;;;22.97;64.32;101490.53;5034669;28;20037;-79
2022/06/18 04:56:53;;;;;;;2.45;2.25;;;;;;;22.91;64.61;101491.31;5031236;28;20423;-81
2022/06/18 04:59:19;;;;;;;;;;;;;;;22.96;64.52;101486.06;5021210;28;20033;-78
2022/06/18 05:01:45;;;;;;;3.00;2.43;;;;;;;22.94;64.45;101488.72;5030016;28;19920;-80
2022/06/18 05:04:13;;;;;;;;;;;;;;;22.95;64.32;101484.28;5031354;28;20615;-80
2022/06/18 05:06:39;;;;;;;2.53;2.30;;;;;;;22.93;64.58;101483.38;5033562;28;19921;-81
2022/06/18 05:09:04;;;;;;;2.10;1.98;;;;;;;22.93;64.48;101494.91;5032810;28;20052;-80
2022/06/18 05:11:30;;;;;;;2.83;2.13;;;;;;;22.92;64.57;101501.13;5032585;28;20481;-80
2022/06/18 05:13:55;;;;;;;;;;;;;;;22.94;64.43;101515.38;5022488;28;20372;-81
2022/06/18 05:16:21;;;;;;;2.22;2.13;;;;;;;22.90;64.32;101515.28;5043011;28;19909;-81
2022/06/18 05:18:47;;;;;;;;;;;;;;;22.95;64.26;101524.25;5032746;28;20022;-81
2022/06/18 05:21:13;;;;;;;2.30;2.10;;;;;;;22.90;64.71;101505.53;5012856;28;20368;-80
2022/06/18 05:23:38;;;;;;;2.50;2.30;;;;;;;22.97;64.30;101518.06;5034243;28;20025;-79
2022/06/18 05:26:06;;;;;;;2.72;2.53;;;;;;;22.94;64.34;101512.69;5035550;28;20174;-79
2022/06/18 05:28:31;;;;;;;2.50;2.30;;;;;;;22.97;64.32;101519.84;5017262;28;20029;-81
2022/06/18 05:30:57;;;;;;;2.47;2.28;;;;;;;22.97;64.21;101519.84;5038971;28;20025;-80
2022/06/18 05:33:23;;;;;;;2.47;2.28;;;;;;;23.00;64.27;101529.63;5039415;28;20029;-80
2022/06/18 05:35:48;;;;;;;2.97;2.50;;;;;;;23.00;64.50;101529.63;5035199;28;20499;-80
2022/06/18 05:38:20;;;;;;;2.40;2.20;;;;;;;22.94;64.19;101536.69;5039432;28;20091;-81
2022/06/18 05:40:46;;;;;;;3.20;2.20;;;;;;;22.94;64.38;101541.09;5034207;28;20032;-80
2022/06/18 05:43:11;;;;;;;2.65;2.38;;;;;;;22.88;64.56;101540.97;5038832;28;20025;-81
2022/06/18 05:45:37;;;;;;;2.60;2.40;;;;;;;22.96;64.35;101548.25;5036920;28;20029;-80
2022/06/18 05:48:03;;;;;;;;;;;;;;;22.96;64.50;101556.25;5035204;28;20583;-80
2022/06/18 05:50:29;;;;;;;3.10;2.40;;;;;;;22.92;64.45;101561.47;5034461;28;19917;-80
2022/06/18 05:52:54;;;;;;;;;;;;;;;22.96;64.31;101557.97;5039119;28;20021;-80
2022/06/18 05:55:21;;;;;;;2.47;2.28;;;;;;;22.95;64.49;101561.53;5034643;28;19964;-80
2022/06/18 05:57:54;;;;;;;2.42;2.22;;;;;;;22.97;64.43;101554.47;5043990;28;20104;-79
2022/06/18 06:00:22;;;;;;;2.60;2.40;;;;;;;22.96;64.37;101563.31;5020406;28;20029;-79
2022/06/18 06:02:48;;;;;;;3.00;2.45;;;;;;;22.96;64.43;101561.56;5034807;28;20033;-81
2022/06/18 06:05:15;;;;;;;3.00;2.60;;;;;;;22.96;64.49;101566.91;5043979;28;20446;-81
2022/06/18 06:07:42;;;;;;;2.60;2.40;;;;;;;22.97;64.57;101570.44;5044700;28;20068;-80
2022/06/18 06:13:12;;;;;;;2.60;2.40;;;;;;;22.96;64.52;101565.97;5033442;28;20462;-80
2022/06/18 06:15:39;;;;;;;2.47;2.28;;;;;;;22.95;64.31;101566.88;5033410;28;20546;-81
2022/06/18 06:18:06;;;;;;;2.83;2.40;;;;;;;22.95;64.41;101567.75;5034093;28;20048;-81
2022/06/18 06:20:34;;;;;;;2.70;2.50;;;;;;;22.91;64.54;101576.56;5034715;28;20037;-80
2022/06/18 06:23:00;;;;;;;2.63;2.42;;;;;;;22.92;64.38;101569.47;5026377;28;20420;-80
2022/06/18 06:25:25;;;;;;;2.78;2.42;;;;;;;22.96;64.39;101574.88;5034957;28;20031;-80
2022/06/18 06:27:51;;;;;;;2.60;2.40;;;;;;;22.93;64.46;101574.81;5033364;28;20033;-83
2022/06/18 06:30:17;;;;;;;2.45;2.25;;;;;;;22.94;64.58;101565.06;5032768;28;20028;-81
2022/06/18 06:32:44;;;;;;;2.63;2.40;;;;;;;22.81;64.55;101563.06;5031244;28;20043;-82
2022/06/18 06:35:10;;;;;;;2.58;2.38;;;;;;;22.96;64.55;101573.97;5043047;28;20021;-83
2022/06/18 06:37:36;;;;;;;;;;;;;;;23.03;64.47;101572.31;5035971;28;20092;-81
2022/06/18 06:40:15;;;;;;;2.88;2.50;;;;;;;22.95;64.61;101574.84;5042354;28;19983;-83
2022/06/18 06:42:47;;;;;;;2.65;2.45;;;;;;;22.88;64.90;101565.88;5024402;28;20523;-82
2022/06/18 06:45:23;;;;;;;3.10;2.80;;;;;;;22.88;64.36;101580.94;5038741;28;20029;-82
2022/06/18 06:47:50;;;;;;;2.60;2.40;;;;;;;22.86;64.69;101577.34;5025163;28;20025;-82
2022/06/18 06:50:18;;;;;;;2.97;2.38;;;;;;;22.86;64.47;101566.69;5029977;28;20029;-81
2022/06/18 06:52:45;;;;;;;4.78;2.70;;;;;;;22.88;64.41;101583.59;5030672;28;20029;-81
2022/06/18 06:58:04;;;;;;;3.72;2.63;;;;;;;22.77;64.34;101557.72;5033025;28;20047;-81
2022/06/18 07:00:32;;;;;;;3.67;2.72;;;;;;;22.91;64.27;101578.34;5013826;28;20045;-81
2022/06/18 07:02:57;;;;;;;3.53;2.65;;;;;;;22.92;64.45;101593.44;5031425;28;20029;-81
2022/06/18 07:05:23;;;;;;;3.10;2.80;;;;;;;22.89;64.29;101585.41;5032709;28;20032;-83
2022/06/18 07:07:49;;;;;;;2.97;2.67;;;;;;;22.89;64.35;101594.28;5031551;28;20802;-83
2022/06/18 07:10:15;;;;;;;3.05;2.65;;;;;;;22.83;64.46;101575.53;5030075;28;20115;-81
2022/06/18 07:12:40;;;;;;;;;;;;;;;22.93;64.52;101576.59;5031465;28;20029;-82
2022/06/18 07:15:07;;;;;;;3.05;2.67;;;;;;;22.84;64.80;101582.69;5030925;28;20362;-83
2022/06/18 07:17:33;;;;;;;3.28;2.70;;;;;;;22.83;64.70;101579.97;5032308;28;20108;-81
2022/06/18 07:19:59;;;;;;;3.33;2.80;;;;;;;22.71;64.69;101562.94;5031315;28;20112;-83
2022/06/18 07:22:25;;;;;;;3.15;2.85;;;;;;;22.79;64.71;101578.13;5031254;28;20040;-83
2022/06/18 07:24:51;;;;;;;2.90;2.70;;;;;;;22.83;64.77;101583.53;5030614;28;20037;-83
2022/06/18 07:27:18;;;;;;;3.03;2.67;;;;;;;22.76;64.90;101585.19;5032063;28;20599;-83
2022/06/18 07:29:44;;;;;;;3.10;2.80;;;;;;;22.60;65.13;101571.59;5029922;28;20030;-82
2022/06/18 07:32:15;;;;;;;3.05;2.75;;;;;;;22.80;64.88;101591.47;5030671;28;20090;-83
2022/06/18 07:34:41;;;;;;;3.42;3.05;;;;;;;22.77;64.88;101592.34;5030707;28;20476;-81
2022/06/18 07:37:07;;;;;;;3.58;3.17;;;;;;;22.72;64.92;101585.13;5038343;28;20021;-81
2022/06/18 07:39:34;;;;;;;3.17;2.95;;;;;;;22.64;64.93;101579.66;5031414;28;20044;-80
2022/06/18 07:42:00;;;;;;;4.07;2.90;;;;;;;22.60;65.14;101574.25;5030816;28;20499;-81
2022/06/18 07:44:25;;;;;;;;;;;;;;;22.71;65.12;101600.22;5039325;28;20040;-82
2022/06/18 07:46:52;;;;;;;3.47;2.90;;;;;;;22.71;65.18;101596.63;5036933;28;20343;-80
2022/06/18 07:49:18;;;;;;;5.88;3.00;;;;;;;22.53;65.39;101576.81;5031061;28;20021;-80
2022/06/18 07:51:44;;;;;;;3.38;3.13;;;;;;;22.61;65.25;101592.03;5032323;28;20453;-79
2022/06/18 07:54:15;;;;;;;3.78;3.38;;;;;;;22.72;65.28;101606.44;5032566;28;20027;-80
2022/06/18 07:56:40;;;;;;;3.60;3.30;;;;;;;22.71;65.44;101610.88;5031191;28;20021;-81
2022/06/18 07:59:06;;;;;;;3.90;3.13;;;;;;;22.74;65.27;101610.00;5030175;28;20144;-80
2022/06/18 08:01:32;;;;;;;4.90;3.28;;;;;;;22.67;65.62;101606.34;5028281;28;20142;-80
2022/06/18 08:03:57;;;;;;;;;;;;;;;22.70;65.53;101613.50;5030807;28;20561;-80
2022/06/18 08:06:23;;;;;;;3.85;3.53;;;;;;;22.69;65.42;101611.69;5030706;28;20269;-81
2022/06/18 08:08:48;;;;;;;3.88;3.30;;;;;;;22.64;65.62;101598.28;5048840;28;20063;-81
2022/06/18 08:11:16;;;;;;;3.65;3.15;;;;;;;22.67;65.63;101600.09;5022747;28;20036;-81
2022/06/18 08:13:42;;;;;;;3.60;3.30;;;;;;;22.69;65.68;101609.00;5030368;28;20087;-81
2022/06/18 08:16:09;;;;;;;4.75;3.70;;;;;;;22.72;65.70;101617.06;5031212;28;20100;-81
2022/06/18 08:18:35;;;;;;;3.80;3.50;;;;;;;22.67;65.72;101603.69;5029726;28;20029;-81
2022/06/18 08:21:21;;;;;;;3.85;3.55;;;;;;;22.68;65.69;101610.78;5018193;28;20056;-80
2022/06/18 08:23:47;;;;;;;3.90;3.50;;;;;;;22.74;65.52;101628.66;5023094;28;20029;-80
2022/06/18 08:26:13;;;;;;;;;;;;;;;22.74;65.66;101626.00;5001505;28;20025;-81
2022/06/18 08:28:39;;;;;;;3.88;3.40;;;;;;;22.68;65.79;101620.56;4998508;28;19915;-81
2022/06/18 08:31:06;;;;;;;4.03;3.58;;;;;;;22.62;65.61;101608.00;5016440;28;20041;-80
2022/06/18 08:33:32;;;;;;;4.68;3.53;;;;;;;22.64;65.54;101608.06;4999109;28;20025;-80
2022/06/18 08:35:59;;;;;;;4.22;3.83;;;;;;;22.77;65.62;101634.03;5021307;28;20064;-81
2022/06/18 08:38:29;;;;;;;4.20;3.80;;;;;;;22.66;65.63;101616.97;5021573;28;20021;-79
2022/06/18 08:41:22;;;;;;;4.95;4.40;;;;;;;22.83;65.54;101635.91;4996812;28;20041;-80
2022/06/18 08:44:30;;;;;;;5.20;4.53;;;;;;;22.92;65.30;101631.66;5032113;28;20029;-80
2022/06/18 08:47:25;;;;;;;8.30;4.00;;;;;;;22.87;65.16;101632.44;5000731;28;20432;-80
2022/06/18 08:50:09;;;;;;;4.22;3.80;;;;;;;22.92;65.13;101641.38;5031269;28;20030;-81
2022/06/18 08:52:41;;;;;;;3.97;3.60;;;;;;;22.82;65.00;101619.03;5013974;28;20504;-81
2022/06/18 08:55:34;;;;;;;4.30;3.78;;;;;;;22.93;65.02;101637.84;5030259;28;20483;-82
2022/06/18 08:58:08;;;;;;;4.50;4.10;;;;;;;22.86;64.83;101623.53;5012936;28;20025;-81
2022/06/18 09:00:46;;;;;;;6.25;3.88;;;;;;;22.89;64.97;101628.91;5015347;28;20017;-81
2022/06/18 09:04:05;;;;;;;5.15;4.15;;;;;;;22.96;64.84;101633.50;5025008;28;20021;-80
2022/06/18 09:06:52;;;;;;;4.32;3.90;;;;;;;22.92;64.80;101636.97;4982853;28;20498;-80
2022/06/18 09:09:22;;;;;;;5.50;4.20;;;;;;;22.86;64.63;101620.88;4976950;28;20072;-81
2022/06/18 09:11:56;;;;;;;4.07;3.67;;;;;;;22.97;64.61;101631.72;5005299;28;20041;-81
2022/06/18 09:14:40;;;;;;;4.43;3.92;;;;;;;22.94;64.71;101629.91;5013135;28;20030;-81
2022/06/18 09:17:08;;;;;;;4.55;3.85;;;;;;;22.94;64.45;101637.91;5030637;28;20390;-81
2022/06/18 09:19:36;;;;;;;4.60;4.10;;;;;;;22.95;64.67;101644.13;5030670;28;20026;-81
2022/06/18 09:22:05;;;;;;;4.47;3.95;;;;;;;22.96;64.61;101648.56;5002039;28;20057;-81
2022/06/18 09:24:44;;;;;;;4.18;3.75;;;;;;;22.71;64.75;101618.84;5013195;28;20040;-80
2022/06/18 09:27:17;;;;;;;4.40;4.00;;;;;;;22.95;64.59;101657.44;5010771;28;20404;-81
2022/06/18 09:29:57;;;;;;;4.38;3.97;;;;;;;22.89;64.60;101644.00;5025531;28;20500;-81
2022/06/18 09:32:48;;;;;;;4.30;3.90;;;;;;;22.97;64.54;101661.03;5032141;28;20029;-81
2022/06/18 09:35:17;;;;;;;7.70;4.60;;;;;;;22.96;64.44;101656.53;5007032;28;20056;-81
2022/06/18 09:38:12;;;;;;;4.65;4.20;;;;;;;22.94;64.65;101660.94;5021196;28;20100;-81
2022/06/18 09:40:45;;;;;;;4.70;3.97;;;;;;;22.95;64.57;101665.41;5008304;28;20432;-80
2022/06/18 09:43:42;;;;;;;4.80;4.30;;;;;;;22.97;64.58;101669.91;5026010;28;20095;-80
2022/06/18 09:46:35;;;;;;;6.85;4.30;;;;;;;22.96;64.48;101673.44;5006046;28;20044;-81
2022/06/18 09:49:00;;;;;;;4.50;4.10;;;;;;;22.94;64.70;101680.50;5019249;28;20531;-80
2022/06/18 09:51:51;;;;;;;4.40;4.05;;;;;;;22.92;64.67;101678.66;5029408;28;20032;-80
2022/06/18 09:54:18;;;;;;;5.05;4.55;;;;;;;22.85;64.32;101668.78;4991883;28;20040;-80
2022/06/18 09:56:52;;;;;;;4.90;4.15;;;;;;;22.69;64.67;101638.31;5009477;28;20140;-81
2022/06/18 09:59:21;;;;;;;4.95;4.40;;;;;;;22.84;64.57;101661.66;5022292;28;20086;-80
2022/06/18 10:01:53;;;;;;;5.30;4.57;;;;;;;22.96;64.66;101685.84;5019435;28;20032;-81
2022/06/18 10:07:26;;;;;;;5.10;4.55;;;;;;;22.92;64.74;101676.00;5021828;28;20083;-81
2022/06/18 10:09:54;;;;;;;5.03;4.40;;;;;;;22.91;64.43;101656.47;5024623;28;20420;-81
2022/06/18 10:12:25;;;;;;;4.55;4.13;;;;;;;22.85;64.57;101655.47;5035099;28;20028;-81
2022/06/18 10:14:54;;;;;;;4.90;4.40;;;;;;;22.94;64.71;101660.94;5038107;28;20021;-80
2022/06/18 10:17:45;;;;;;;5.95;4.35;;;;;;;22.92;64.62;101662.69;5051845;28;20075;-79
2022/06/18 10:20:20;;;;;;;4.95;4.45;;;;;;;22.87;64.94;101654.63;5054089;28;20024;-81
2022/06/18 10:22:58;;;;;;;5.13;4.60;;;;;;;22.84;64.98;101666.97;5053062;28;20025;-80
2022/06/18 10:25:27;;;;;;;5.43;4.68;;;;;;;22.74;65.94;101658.84;5051454;28;20014;-80
2022/06/18 10:28:10;;;;;;;5.03;4.60;;;;;;;22.78;65.61;101665.13;5026563;28;20029;-81
2022/06/18 10:31:16;;;;;;;5.03;4.53;;;;;;;22.87;65.43;101667.06;5034451;28;20031;-80
2022/06/18 10:33:48;;;;;;;5.07;4.65;;;;;;;22.91;65.29;101671.56;5029636;28;20059;-79
2022/06/18 10:36:41;;;;;;;6.25;4.80;;;;;;;22.91;65.19;101664.47;5029652;28;20460;-81
2022/06/18 10:39:37;;;;;;;5.50;4.93;;;;;;;22.90;65.38;101662.69;4998758;28;20040;-81
2022/06/18 10:42:40;;;;;;;5.25;4.70;;;;;;;22.89;65.51;101670.63;5012831;28;20493;-80
2022/06/18 10:45:26;;;;;;;5.63;4.85;;;;;;;22.90;65.60;101672.41;5026057;28;20435;-80
2022/06/18 10:47:52;;;;;;;5.40;4.85;;;;;;;22.84;65.47;101661.66;5030884;28;20068;-80
2022/06/18 10:50:20;;;;;;;5.50;4.82;;;;;;;22.87;65.44;101672.38;5022838;28;20504;-79
2022/06/18 10:53:00;;;;;;;5.00;4.50;;;;;;;22.79;65.45;101652.69;5026080;28;20505;-80
2022/06/18 10:55:26;;;;;;;6.40;5.07;;;;;;;22.87;65.16;101661.72;5035093;28;20025;-81
2022/06/18 10:57:52;;;;;;;5.57;4.97;;;;;;;22.86;65.55;101663.50;5039731;28;20038;-80
2022/06/18 11:00:25;;;;;;;5.18;4.78;;;;;;;22.79;65.51;101642.03;5019717;28;20033;-80
2022/06/18 11:03:00;;;;;;;5.63;4.75;;;;;;;22.80;65.44;101649.19;5031501;28;20404;-81
2022/06/18 11:05:33;;;;;;;5.68;4.65;;;;;;;22.87;65.46;101670.59;5035516;28;20450;-79
2022/06/18 11:08:01;;;;;;;6.43;5.03;;;;;;;22.89;65.52;101666.19;5028917;28;20040;-80
2022/06/18 11:10:43;;;;;;;6.57;4.82;;;;;;;22.86;65.60;101658.16;5034900;28;20098;-80
2022/06/18 11:13:30;;;;;;;5.18;4.68;;;;;;;22.92;65.49;101658.28;5026717;28;20033;-80
2022/06/18 11:16:11;;;;;;;6.57;5.88;;;;;;;22.80;66.60;101660.72;5040098;28;20075;-81
2022/06/18 11:18:46;;;;;;;7.82;6.30;;;;;;;22.73;68.59;101666.78;5042078;28;20021;-79
2022/06/18 11:21:18;;;;;;;10.17;6.57;;;;;;;22.76;68.06;101662.41;5011957;28;20481;-78
2022/06/18 11:23:49;;;;;;;8.55;6.25;;;;;;;22.81;67.88;101664.28;5012301;28;20033;-81
2022/06/18 11:26:25;;;;;;;10.25;6.50;;;;;;;22.76;68.44;101675.75;5036517;28;20025;-79
2022/06/18 11:28:53;;;;;;;8.98;7.15;;;;;;;22.82;68.43;101672.31;5014937;28;20042;-80
2022/06/18 11:31:32;;;;;;;9.40;6.80;;;;;;;22.83;68.38;101676.75;5028495;28;20029;-81
2022/06/18 11:34:23;;;;;;;7.65;6.72;;;;;;;22.87;67.80;101677.72;4997636;28;20086;-80
2022/06/18 11:36:51;;;;;;;11.80;6.90;;;;;;;22.80;68.26;101679.38;5018477;28;20021;-81
2022/06/18 11:39:32;;;;;;;8.27;6.57;;;;;;;22.80;67.98;101684.69;4988440;28;20026;-80
2022/06/18 11:42:20;;;;;;;10.27;6.63;;;;;;;22.79;68.31;101687.31;5027963;28;20017;-79
2022/06/18 11:45:11;;;;;;;9.45;6.78;;;;;;;22.77;68.69;101681.94;5027253;28;20404;-80
2022/06/18 11:47:45;;;;;;;9.50;7.07;;;;;;;22.69;68.27;101679.16;5012217;28;20033;-81
2022/06/18 11:50:27;;;;;;;7.93;7.10;;;;;;;22.79;68.16;101690.88;5010939;28;20110;-79
2022/06/18 11:53:12;;;;;;;7.82;6.45;;;;;;;22.76;68.22;101693.50;4980737;28;20018;-78
2022/06/18 11:59:15;;;;;;;8.65;6.68;;;;;;;22.83;67.98;101692.72;5028409;28;20048;-79
2022/06/18 12:02:07;;;;;;;8.45;6.47;;;;;;;22.83;68.05;101689.16;5000648;28;20033;-80
2022/06/18 12:04:44;;;;;;;8.70;6.22;;;;;;;22.81;67.87;101688.25;5002569;28;20515;-80
2022/06/18 12:07:39;;;;;;;8.98;6.57;;;;;;;22.86;67.47;101683.88;5013205;28;20021;-81
2022/06/18 12:10:11;;;;;;;9.25;6.65;;;;;;;22.70;67.06;101653.44;5030705;28;20057;-81